ROTAER D-AMDT 24/20 Ver Mudanças

HORÁCIO DE MATTOS ( SBLE ) / LENÇÓIS, BA 12 28 56S/041 16 37W
AD PUB Governo do Estado UTC-3 VFR L21 , L26 506 (1660)

14 - L12 - ( 2082x30 ASPH 44/R/A/W/T L14 , L15 ) - L12 - 32

SBRE (CINDACTA 3)
CMB- [1] PF TF

RMK -

HORÁRIO DE FUNCIONAMENTO
  1. OPS HN O/R pelo TEL/FAX (75) 3625-8100.
OBSTÁCULO DE AERÓDROMO
  1. OBST (morro) NEG LGTD COORD 122634.47S/0411658.93W ELEV 574M violando o plano básico de zona de proteção do AD
COMPL -
  • [1] MON TIL FRI 1130-1500 1600-2100 SUN 1500-1800. Demais horários O/R Tel (75) 3625-8697 e (75) 3625-8100 durante horário comercial.
TEMP (0)

Suplementos AIP (0)

NOTAM (0)

Nascer/Por do Sol

09:07

20:34


METAR

TAF

131500Z 1318/1406 15005KT 9999 SCT017 TX29/1318Z TN17/1406Z BECMG 1322/1324 13003KT RMK PAZ=


Cartas (0)


Rotas Preferenciais (0)